Time;durP1;ratioP1;P1;durP2;ratioP2;P2;SDS_P1;SDS_P2;PMS_P1;PMS_P2;Temp;Humidity;BMP_temperature;BMP_pressure;BME280_temperature;BME280_humidity;BME280_pressure;Samples;Min_cycle;Max_cycle;Signal;HPM_P1;HPM_P2
2023/07/11 00:00:44;;;;;;;18.40;10.48;;;;;;;20.58;67.86;101521.59;5035479;28;20068;-69
2023/07/11 00:03:10;;;;;;;19.15;11.27;;;;;;;20.52;68.07;101511.78;5046888;28;20032;-69
2023/07/11 00:05:36;;;;;;;18.40;10.88;;;;;;;20.51;68.25;101515.75;5037080;28;20039;-69
2023/07/11 00:08:02;;;;;;;18.05;10.40;;;;;;;20.48;68.06;101510.84;5051031;28;20037;-70
2023/07/11 00:10:29;;;;;;;18.77;10.38;;;;;;;20.44;68.55;101511.94;5046395;28;20037;-70
2023/07/11 00:12:54;;;;;;;18.35;10.93;;;;;;;20.37;68.71;101510.56;5052485;28;20021;-70
2023/07/11 00:15:19;;;;;;;19.75;10.57;;;;;;;20.34;69.07;101500.03;5035123;28;20174;-70
2023/07/11 00:17:46;;;;;;;18.95;10.40;;;;;;;20.34;68.85;101494.41;5034945;28;20120;-70
2023/07/11 00:20:13;;;;;;;18.70;11.05;;;;;;;20.32;69.14;101510.78;5035052;28;20036;-70
2023/07/11 00:22:39;;;;;;;18.52;10.90;;;;;;;20.22;69.71;101492.47;5044344;28;20452;-71
2023/07/11 00:25:05;;;;;;;18.88;10.68;;;;;;;20.22;69.45;101497.25;5045397;28;20080;-71
2023/07/11 00:27:31;;;;;;;19.48;10.82;;;;;;;20.20;69.51;101497.63;5037407;28;20033;-71
2023/07/11 00:29:57;;;;;;;19.52;11.27;;;;;;;20.19;69.39;101495.97;5046185;28;20017;-71
2023/07/11 00:32:22;;;;;;;20.90;10.93;;;;;;;20.15;70.22;101497.06;5041092;28;20121;-71
2023/07/11 00:34:48;;;;;;;19.08;10.25;;;;;;;20.12;70.36;101490.16;5034856;28;20690;-71
2023/07/11 00:37:14;;;;;;;19.27;11.15;;;;;;;20.09;70.90;101490.88;5041814;28;20036;-71
2023/07/11 00:39:39;;;;;;;18.75;10.60;;;;;;;20.06;70.78;101486.78;5054557;28;20025;-71
2023/07/11 00:42:07;;;;;;;21.75;10.63;;;;;;;20.04;71.13;101488.31;5054496;28;20394;-71
2023/07/11 00:44:49;;;;;;;18.52;9.73;;;;;;;20.08;70.15;101492.03;5054360;28;20039;-70
2023/07/11 00:47:14;;;;;;;19.13;10.70;;;;;;;20.00;71.25;101490.19;5054441;28;20502;-70
2023/07/11 00:49:40;;;;;;;18.02;10.70;;;;;;;20.01;71.18;101492.66;5054341;28;20025;-71
2023/07/11 00:52:06;;;;;;;18.35;10.15;;;;;;;19.99;71.29;101489.38;5053022;28;20025;-71
2023/07/11 00:54:35;;;;;;;19.30;11.10;;;;;;;19.91;71.45;101484.72;5047496;28;20033;-71
2023/07/11 00:57:04;;;;;;;19.27;11.02;;;;;;;19.97;71.26;101493.72;5034116;28;20042;-71
2023/07/11 00:59:30;;;;;;;20.70;10.82;;;;;;;19.93;71.67;101491.63;5040746;28;20097;-71
2023/07/11 01:02:03;;;;;;;17.00;9.68;;;;;;;19.84;72.31;101488.09;5050872;28;20033;-71
2023/07/11 01:04:29;;;;;;;17.00;10.45;;;;;;;19.85;72.44;101488.91;5047376;28;20043;-72
2023/07/11 01:06:55;;;;;;;18.77;10.80;;;;;;;19.83;72.07;101494.88;5048421;28;20056;-71
2023/07/11 01:09:20;;;;;;;18.52;10.52;;;;;;;19.80;72.95;101492.78;5053911;28;20068;-72
2023/07/11 01:12:08;;;;;;;18.08;10.80;;;;;;;19.79;72.57;101496.75;5052202;28;20047;-72
2023/07/11 01:14:35;;;;;;;19.10;10.55;;;;;;;19.66;73.86;101492.34;5054059;28;20025;-72
2023/07/11 01:17:01;;;;;;;18.55;10.88;;;;;;;19.59;74.23;101490.13;5053570;28;20028;-72
2023/07/11 01:19:26;;;;;;;19.15;11.10;;;;;;;19.56;74.61;101491.66;5053985;28;20531;-72
2023/07/11 01:21:52;;;;;;;18.40;10.88;;;;;;;19.53;74.86;101502.78;5054538;28;20468;-72
2023/07/11 01:24:17;;;;;;;18.92;11.43;;;;;;;19.51;74.80;101500.31;5053604;28;20029;-73
2023/07/11 01:26:43;;;;;;;20.20;11.60;;;;;;;19.40;75.45;101499.97;5051623;28;20127;-73
2023/07/11 01:29:10;;;;;;;19.65;11.52;;;;;;;19.37;74.96;101503.47;5042368;28;20124;-72
2023/07/11 01:31:36;;;;;;;20.40;12.23;;;;;;;19.30;76.07;101497.63;5058461;28;20024;-72
2023/07/11 01:34:03;;;;;;;18.77;11.57;;;;;;;19.24;76.36;101494.22;5040400;28;20029;-72
2023/07/11 01:36:28;;;;;;;19.50;12.18;;;;;;;19.18;77.10;101485.22;5044709;28;20041;-73
2023/07/11 01:38:53;;;;;;;19.90;11.88;;;;;;;19.16;77.67;101486.75;5053750;28;20033;-72
2023/07/11 01:41:19;;;;;;;20.60;11.93;;;;;;;19.12;78.56;101485.84;5050002;28;20373;-72
2023/07/11 01:43:44;;;;;;;20.58;11.98;;;;;;;19.15;77.84;101480.34;5053782;28;20486;-72
2023/07/11 01:46:09;;;;;;;19.60;11.38;;;;;;;19.12;77.94;101469.00;5044698;28;20032;-72
2023/07/11 01:48:35;;;;;;;22.90;12.90;;;;;;;19.13;77.80;101476.22;5040131;28;20224;-73
2023/07/11 01:51:00;;;;;;;20.98;12.40;;;;;;;19.08;78.23;101468.84;5046316;28;20025;-72
2023/07/11 01:53:25;;;;;;;20.35;12.30;;;;;;;19.08;77.73;101468.84;5051288;28;20029;-72
2023/07/11 01:55:56;;;;;;;20.10;11.90;;;;;;;19.07;77.89;101458.84;5051076;28;20372;-72
2023/07/11 01:58:22;;;;;;;20.33;12.15;;;;;;;19.04;78.50;101453.09;5039183;28;20034;-72
2023/07/11 02:00:47;;;;;;;19.30;12.20;;;;;;;18.99;79.10;101457.78;5033384;28;20469;-72
2023/07/11 02:03:13;;;;;;;20.50;12.00;;;;;;;18.95;79.31;101448.41;5035510;28;20107;-72
2023/07/11 02:05:39;;;;;;;20.50;12.55;;;;;;;18.92;79.77;101445.47;5033939;28;20034;-72
2023/07/11 02:08:05;;;;;;;18.92;12.40;;;;;;;18.91;79.51;101447.47;5039501;28;20021;-73
2023/07/11 02:10:30;;;;;;;19.38;12.63;;;;;;;18.87;79.40;101443.69;5033430;28;20544;-72
2023/07/11 02:12:55;;;;;;;20.52;12.35;;;;;;;18.84;79.00;101438.81;5052601;28;20079;-71
2023/07/11 02:15:21;;;;;;;20.25;12.27;;;;;;;18.79;80.22;101433.41;5036917;28;20453;-72
2023/07/11 02:17:46;;;;;;;19.05;12.32;;;;;;;18.76;79.48;101431.31;5050383;28;20041;-72
2023/07/11 02:20:11;;;;;;;20.23;11.80;;;;;;;18.73;80.56;101432.81;5036274;28;20033;-71
2023/07/11 02:22:37;;;;;;;19.63;12.60;;;;;;;18.68;80.89;101433.06;5051853;28;20037;-71
2023/07/11 02:25:03;;;;;;;19.55;12.10;;;;;;;18.59;81.96;101424.75;5034359;28;20045;-71
2023/07/11 02:27:28;;;;;;;19.40;12.77;;;;;;;18.52;82.89;101414.09;5038636;28;20048;-72
2023/07/11 02:29:53;;;;;;;19.85;12.25;;;;;;;18.51;82.01;101418.09;5037873;28;20388;-73
2023/07/11 02:32:19;;;;;;;18.67;11.88;;;;;;;18.44;83.08;101414.22;5033344;28;20021;-72
2023/07/11 02:34:44;;;;;;;20.88;11.93;;;;;;;18.37;83.41;101406.38;5034397;28;20033;-72
2023/07/11 02:37:09;;;;;;;20.30;12.07;;;;;;;18.37;83.52;101409.16;5051796;28;20036;-71
2023/07/11 02:39:35;;;;;;;20.95;12.15;;;;;;;18.36;82.03;101405.56;5032684;28;20433;-73
2023/07/11 02:42:00;;;;;;;20.23;12.68;;;;;;;18.29;82.97;101405.28;5038279;28;20365;-74
2023/07/11 02:44:25;;;;;;;19.48;12.48;;;;;;;18.30;83.20;101403.31;5032314;28;20503;-73
2023/07/11 02:46:51;;;;;;;20.67;12.60;;;;;;;18.26;84.05;101403.19;5032431;28;20029;-72
2023/07/11 02:49:18;;;;;;;21.50;12.55;;;;;;;18.21;84.25;101392.19;5033538;28;20064;-73
2023/07/11 02:51:43;;;;;;;20.10;13.43;;;;;;;18.21;83.99;101384.63;5039531;28;20210;-72
2023/07/11 02:54:08;;;;;;;22.10;12.77;;;;;;;18.17;84.64;101382.88;5040367;28;20109;-73
2023/07/11 02:56:34;;;;;;;21.02;12.75;;;;;;;18.16;84.07;101389.63;5043679;28;20376;-73
2023/07/11 02:59:00;;;;;;;20.70;12.85;;;;;;;18.15;83.28;101377.59;5057636;28;20355;-73
2023/07/11 03:01:30;;;;;;;20.85;13.18;;;;;;;18.11;84.86;101382.25;5040376;28;20605;-74
2023/07/11 03:03:55;;;;;;;20.20;12.27;;;;;;;18.11;84.13;101373.88;5062241;28;20029;-72
2023/07/11 03:06:20;;;;;;;19.50;12.85;;;;;;;18.09;84.91;101371.38;5047100;28;20020;-72
2023/07/11 03:08:46;;;;;;;20.50;12.20;;;;;;;18.05;85.22;101366.81;5051913;28;20492;-72
2023/07/11 03:11:11;;;;;;;20.95;12.35;;;;;;;18.05;85.19;101370.47;5044201;28;20445;-72
2023/07/11 03:13:36;;;;;;;21.25;12.60;;;;;;;18.00;85.58;101361.47;5072097;28;20033;-73
2023/07/11 03:16:03;;;;;;;19.60;12.40;;;;;;;17.98;85.43;101346.97;5054184;28;20504;-72
2023/07/11 03:18:29;;;;;;;20.88;12.13;;;;;;;17.98;86.17;101358.19;5055718;28;20037;-73
2023/07/11 03:20:58;;;;;;;20.85;12.75;;;;;;;17.92;86.23;101349.16;5045917;28;20036;-72
2023/07/11 03:23:23;;;;;;;20.40;12.38;;;;;;;17.96;86.32;101349.28;5058828;28;20733;-72
2023/07/11 03:25:49;;;;;;;20.10;12.60;;;;;;;17.91;86.55;101353.94;5049529;28;20079;-72
2023/07/11 03:28:14;;;;;;;20.27;13.20;;;;;;;17.86;86.89;101350.53;5039631;28;20104;-72
2023/07/11 03:30:40;;;;;;;20.10;13.90;;;;;;;17.86;86.81;101344.94;5051726;28;20473;-73
2023/07/11 03:33:05;;;;;;;20.52;13.75;;;;;;;17.82;87.02;101350.41;5042702;28;20033;-73
2023/07/11 03:35:31;;;;;;;21.48;13.50;;;;;;;17.77;87.73;101340.25;5031740;28;20389;-73
2023/07/11 03:37:56;;;;;;;19.63;12.90;;;;;;;17.75;87.93;101350.16;5044879;28;20061;-73
2023/07/11 03:40:22;;;;;;;21.13;13.75;;;;;;;17.72;87.96;101334.84;5034247;28;20472;-72
2023/07/11 03:42:47;;;;;;;20.90;13.20;;;;;;;17.77;87.87;101340.25;5048724;28;20025;-72
2023/07/11 03:45:14;;;;;;;21.13;12.85;;;;;;;17.67;88.23;101334.22;5036855;28;20033;-72
2023/07/11 03:47:39;;;;;;;19.30;12.80;;;;;;;17.71;88.67;101346.38;5051334;28;20040;-73
2023/07/11 03:50:05;;;;;;;21.13;13.32;;;;;;;17.68;88.53;101344.25;5037117;28;20026;-73
2023/07/11 03:52:30;;;;;;;21.60;13.70;;;;;;;17.70;88.71;101345.59;5042430;28;20086;-73
2023/07/11 03:54:55;;;;;;;22.45;13.70;;;;;;;17.72;88.33;101342.44;5039814;28;20064;-72
2023/07/11 03:57:21;;;;;;;19.73;13.23;;;;;;;17.69;89.17;101352.34;5040094;28;20083;-72
2023/07/11 03:59:46;;;;;;;20.10;12.63;;;;;;;17.68;89.17;101341.47;5040475;28;20025;-71
2023/07/11 04:02:12;;;;;;;20.42;12.07;;;;;;;17.72;88.74;101337.63;5040289;28;20025;-71
2023/07/11 04:04:37;;;;;;;20.38;12.00;;;;;;;17.73;88.77;101339.28;5038154;28;20059;-71
2023/07/11 04:07:03;;;;;;;20.10;12.60;;;;;;;17.75;88.60;101336.16;5045889;28;20044;-72
2023/07/11 04:09:28;;;;;;;20.80;11.98;;;;;;;17.76;88.19;101335.81;5050677;28;20029;-70
2023/07/11 04:11:54;;;;;;;20.20;12.18;;;;;;;17.73;89.02;101332.88;5034914;28;20025;-72
2023/07/11 04:14:19;;;;;;;19.20;11.23;;;;;;;17.75;88.77;101325.78;5050986;28;20021;-71
2023/07/11 04:16:44;;;;;;;20.25;11.93;;;;;;;17.75;88.67;101331.38;5046425;28;20040;-71
2023/07/11 04:19:09;;;;;;;20.08;11.48;;;;;;;17.78;88.57;101329.84;5050922;28;20386;-71
2023/07/11 04:21:35;;;;;;;19.90;11.43;;;;;;;17.76;88.70;101332.16;5043845;28;20064;-72
2023/07/11 04:24:00;;;;;;;19.92;11.90;;;;;;;17.77;88.58;101325.41;5050977;28;20384;-72
2023/07/11 04:26:26;;;;;;;19.55;11.52;;;;;;;17.84;88.54;101320.09;5049507;28;20041;-71
2023/07/11 04:28:51;;;;;;;19.58;11.70;;;;;;;17.85;88.15;101320.91;5030523;28;20374;-71
2023/07/11 04:31:16;;;;;;;20.73;11.75;;;;;;;17.87;88.06;101313.00;5041657;28;20430;-72
2023/07/11 04:33:42;;;;;;;20.65;12.27;;;;;;;17.91;88.17;101313.91;5049042;28;20056;-72
2023/07/11 04:36:13;;;;;;;19.25;12.43;;;;;;;17.89;88.19;101310.66;5032170;28;20033;-71
2023/07/11 04:38:38;;;;;;;19.92;12.05;;;;;;;17.96;87.65;101310.09;5033881;28;20105;-70
2023/07/11 04:41:05;;;;;;;21.23;12.60;;;;;;;17.96;88.08;101313.75;5030937;28;20500;-71
2023/07/11 04:43:33;;;;;;;19.67;12.00;;;;;;;18.00;87.42;101313.88;5037478;28;20037;-71
2023/07/11 04:46:00;;;;;;;19.10;11.55;;;;;;;18.03;87.52;101299.19;5037303;28;20040;-70
2023/07/11 04:48:26;;;;;;;19.63;11.90;;;;;;;18.03;87.29;101293.59;5048689;28;20059;-70
2023/07/11 04:50:56;;;;;;;18.58;11.35;;;;;;;18.07;87.16;101297.31;5053071;28;20017;-70
2023/07/11 04:53:21;;;;;;;19.27;11.85;;;;;;;18.16;86.67;101294.44;5047488;28;20054;-71
2023/07/11 04:55:46;;;;;;;20.95;12.10;;;;;;;18.25;86.52;101286.75;5053090;28;20037;-70
2023/07/11 04:58:12;;;;;;;19.52;11.73;;;;;;;18.29;86.45;101284.06;5044895;28;20388;-70
2023/07/11 05:00:37;;;;;;;18.42;11.70;;;;;;;18.36;86.11;101287.94;5035272;28;20022;-72
2023/07/11 05:03:03;;;;;;;19.58;11.40;;;;;;;18.44;85.75;101288.16;5046011;28;20120;-71
2023/07/11 05:05:28;;;;;;;21.38;12.52;;;;;;;18.52;85.18;101276.03;5044267;28;20379;-71
2023/07/11 05:07:54;;;;;;;18.77;12.25;;;;;;;18.59;84.66;101284.66;5041769;28;20017;-72
2023/07/11 05:10:19;;;;;;;21.23;12.10;;;;;;;18.67;84.82;101282.91;5045387;28;20025;-71
2023/07/11 05:12:44;;;;;;;19.08;11.98;;;;;;;18.72;83.83;101282.66;5050226;28;20746;-72
2023/07/11 05:15:11;;;;;;;20.90;11.95;;;;;;;18.78;83.85;101281.25;5034338;28;20044;-72
2023/07/11 05:17:37;;;;;;;19.40;11.77;;;;;;;18.83;83.61;101275.41;5040270;28;20557;-70
2023/07/11 05:20:02;;;;;;;20.05;11.82;;;;;;;18.95;83.81;101262.56;5033923;28;20294;-71
2023/07/11 05:22:27;;;;;;;19.10;11.60;;;;;;;18.99;82.61;101264.31;5041640;28;20029;-70
2023/07/11 05:24:53;;;;;;;19.50;11.57;;;;;;;19.08;82.25;101255.75;5047540;28;20115;-71
2023/07/11 05:27:19;;;;;;;21.85;12.40;;;;;;;19.14;82.18;101254.34;5050337;28;20064;-70
2023/07/11 05:29:45;;;;;;;19.65;12.00;;;;;;;19.22;82.25;101249.78;5042247;28;20087;-71
2023/07/11 05:32:10;;;;;;;20.63;11.95;;;;;;;19.27;81.19;101243.09;5035925;28;20033;-72
2023/07/11 05:34:36;;;;;;;20.08;11.50;;;;;;;19.31;80.37;101253.25;5050315;28;20033;-72
2023/07/11 05:37:01;;;;;;;19.90;11.30;;;;;;;19.39;80.36;101248.63;5037560;28;20049;-70
2023/07/11 05:39:26;;;;;;;19.75;11.52;;;;;;;19.49;79.67;101242.53;5040697;28;20048;-70
2023/07/11 05:41:52;;;;;;;19.70;11.35;;;;;;;19.56;79.42;101244.72;5033342;28;20032;-70
2023/07/11 05:44:18;;;;;;;19.00;11.43;;;;;;;19.63;79.34;101246.91;5051188;28;20163;-71
2023/07/11 05:46:43;;;;;;;18.90;11.35;;;;;;;19.73;78.67;101251.16;5033210;28;20037;-70
2023/07/11 05:49:09;;;;;;;19.38;11.40;;;;;;;19.80;78.78;101246.56;5047341;28;20396;-70
2023/07/11 05:51:35;;;;;;;19.60;11.27;;;;;;;19.88;77.96;101242.00;5039737;28;20043;-72
2023/07/11 05:54:01;;;;;;;18.52;10.77;;;;;;;19.98;77.68;101248.25;5053200;28;20484;-69
2023/07/11 05:56:26;;;;;;;18.65;10.95;;;;;;;20.05;77.48;101243.63;5051302;28;20025;-72
2023/07/11 05:58:53;;;;;;;18.67;11.00;;;;;;;20.14;76.15;101243.47;5053115;28;20041;-72
2023/07/11 06:01:22;;;;;;;19.55;11.68;;;;;;;20.20;75.40;101230.75;5039945;28;20033;-72
2023/07/11 06:04:02;;;;;;;19.60;10.93;;;;;;;20.32;75.30;101227.03;5052686;28;20036;-69
2023/07/11 06:06:28;;;;;;;19.15;10.70;;;;;;;20.41;74.34;101224.84;5049617;28;20036;-68
2023/07/11 06:08:53;;;;;;;19.05;11.35;;;;;;;20.50;74.15;101227.47;5045762;28;20107;-68
2023/07/11 06:11:18;;;;;;;17.63;10.65;;;;;;;20.61;73.72;101224.91;5052565;28;20384;-69
2023/07/11 06:13:44;;;;;;;19.50;11.23;;;;;;;20.66;73.07;101219.00;5049830;28;20051;-69
2023/07/11 06:16:14;;;;;;;19.15;11.27;;;;;;;20.72;73.42;101217.53;5032843;28;20473;-69
2023/07/11 06:18:40;;;;;;;19.27;11.10;;;;;;;20.83;72.33;101219.81;5048521;28;20045;-69
2023/07/11 06:21:08;;;;;;;18.13;11.07;;;;;;;20.88;71.81;101225.97;5043899;28;20078;-70
2023/07/11 06:23:34;;;;;;;20.75;11.15;;;;;;;20.94;72.13;101217.22;5047689;28;20028;-70
2023/07/11 06:25:59;;;;;;;19.20;10.40;;;;;;;21.05;72.38;101221.09;5051208;28;20068;-70
2023/07/11 06:28:25;;;;;;;18.42;10.65;;;;;;;21.12;71.58;101223.22;5046452;28;20039;-70
2023/07/11 06:30:54;;;;;;;19.13;10.50;;;;;;;21.18;71.71;101211.31;5042917;28;20393;-70
2023/07/11 06:33:19;;;;;;;19.88;11.13;;;;;;;21.25;70.73;101213.47;5046704;28;20055;-70
2023/07/11 06:35:49;;;;;;;17.83;10.70;;;;;;;21.34;70.71;101205.63;5032490;28;20445;-70
2023/07/11 06:38:15;;;;;;;20.00;10.75;;;;;;;21.48;69.87;101213.53;5052253;28;20033;-71
2023/07/11 06:40:40;;;;;;;19.48;10.40;;;;;;;21.59;69.08;101210.94;5036965;28;20087;-70
2023/07/11 06:43:06;;;;;;;17.52;9.85;;;;;;;21.70;67.96;101207.50;5041539;28;20067;-70
2023/07/11 06:45:31;;;;;;;17.05;9.70;;;;;;;21.78;66.84;101210.06;5045662;28;20428;-70
2023/07/11 06:47:56;;;;;;;19.20;9.80;;;;;;;21.91;67.32;101210.72;5050224;28;20028;-70
2023/07/11 06:50:22;;;;;;;19.00;9.32;;;;;;;22.03;66.43;101204.06;5056267;28;20065;-71
2023/07/11 06:52:48;;;;;;;17.35;9.57;;;;;;;22.12;65.22;101204.63;5035015;28;20048;-71
2023/07/11 06:55:13;;;;;;;18.30;9.40;;;;;;;22.20;64.16;101199.91;5033060;28;20036;-71
2023/07/11 06:57:39;;;;;;;18.88;9.45;;;;;;;22.26;64.31;101198.41;5038817;28;20039;-69
2023/07/11 07:00:06;;;;;;;17.30;9.35;;;;;;;22.32;63.62;101192.44;5051791;28;20028;-70
2023/07/11 07:02:32;;;;;;;17.48;9.48;;;;;;;22.37;63.14;101198.56;5044845;28;20036;-72
2023/07/11 07:04:57;;;;;;;17.63;9.30;;;;;;;22.37;62.08;101192.13;5032031;28;20032;-72
2023/07/11 07:07:22;;;;;;;17.10;9.70;;;;;;;22.44;62.81;101190.25;5044516;28;20846;-72
2023/07/11 07:09:50;;;;;;;16.30;9.05;;;;;;;22.51;62.84;101198.00;5043486;28;20497;-72
2023/07/11 07:12:16;;;;;;;17.48;9.23;;;;;;;22.65;62.97;101194.56;5034983;28;20032;-71
2023/07/11 07:14:41;;;;;;;17.42;9.20;;;;;;;22.78;62.61;101197.97;5039589;28;20037;-69
2023/07/11 07:17:06;;;;;;;16.48;9.00;;;;;;;22.85;61.05;101195.25;5032061;28;20037;-69
2023/07/11 07:19:32;;;;;;;15.98;9.23;;;;;;;22.92;61.35;101200.16;5054882;28;20253;-70
2023/07/11 07:21:57;;;;;;;17.08;9.15;;;;;;;23.03;61.63;101197.50;5041663;28;20100;-70
2023/07/11 07:24:22;;;;;;;19.17;9.63;;;;;;;23.06;59.31;101196.72;5044463;28;20514;-70
2023/07/11 07:26:49;;;;;;;18.70;10.02;;;;;;;23.12;58.78;101186.72;5046892;28;20107;-70
2023/07/11 07:29:14;;;;;;;19.00;10.05;;;;;;;23.16;58.06;101192.41;5036904;28;20471;-70
2023/07/11 07:31:40;;;;;;;17.90;9.57;;;;;;;23.26;58.79;101188.94;5040654;28;20045;-69
2023/07/11 07:34:06;;;;;;;16.77;9.50;;;;;;;23.29;57.37;101179.66;5044277;28;20042;-69
2023/07/11 07:36:32;;;;;;;18.27;9.57;;;;;;;23.45;57.82;101189.94;5041991;28;20025;-70
2023/07/11 07:38:57;;;;;;;17.63;9.00;;;;;;;23.50;56.25;101183.94;5047858;28;20114;-70
2023/07/11 07:41:25;;;;;;;15.48;9.15;;;;;;;23.58;55.13;101182.00;5037819;28;20026;-69
2023/07/11 07:43:50;;;;;;;17.33;9.48;;;;;;;23.68;54.89;101184.13;5047132;28;20104;-70
2023/07/11 07:46:17;;;;;;;16.60;9.40;;;;;;;23.76;53.96;101180.16;5042796;28;20440;-71
2023/07/11 07:48:43;;;;;;;18.95;9.77;;;;;;;23.88;53.40;101175.41;5055379;28;20029;-70
2023/07/11 07:51:15;;;;;;;18.33;9.27;;;;;;;23.87;53.70;101157.66;5049808;28;20075;-71
2023/07/11 07:53:41;;;;;;;16.55;9.15;;;;;;;24.07;53.36;101174.38;5050140;28;20542;-69
2023/07/11 07:56:14;;;;;;;16.95;9.05;;;;;;;24.16;53.61;101169.19;5048870;28;20182;-70
2023/07/11 07:58:40;;;;;;;16.75;9.40;;;;;;;24.31;52.61;101175.78;5030769;28;20040;-71
2023/07/11 08:01:05;;;;;;;15.32;8.77;;;;;;;24.42;51.56;101165.34;5039949;28;20033;-70
2023/07/11 08:03:32;;;;;;;16.13;8.80;;;;;;;24.43;50.34;101164.16;5039735;28;20020;-70
2023/07/11 08:05:58;;;;;;;17.42;8.85;;;;;;;24.51;50.99;101162.19;5054132;28;20082;-70
2023/07/11 08:08:24;;;;;;;17.08;8.88;;;;;;;24.57;51.11;101166.25;5050741;28;20021;-70
2023/07/11 08:10:49;;;;;;;14.93;8.68;;;;;;;24.68;51.07;101159.88;5066572;28;20048;-69
2023/07/11 08:13:14;;;;;;;16.30;8.60;;;;;;;24.77;50.73;101154.66;5042186;28;20053;-70
2023/07/11 08:15:43;;;;;;;17.65;9.45;;;;;;;24.88;50.47;101161.19;5049937;28;20716;-69
2023/07/11 08:18:09;;;;;;;16.10;9.07;;;;;;;24.94;50.00;101161.59;5042974;28;20111;-68
2023/07/11 08:20:35;;;;;;;19.60;9.85;;;;;;;25.14;50.57;101158.41;5037060;28;20030;-68
2023/07/11 08:23:01;;;;;;;18.70;9.63;;;;;;;25.19;50.41;101152.38;5033491;28;20049;-69
2023/07/11 08:25:26;;;;;;;18.95;9.48;;;;;;;25.26;49.64;101155.22;5041380;28;20453;-67
2023/07/11 08:27:51;;;;;;;15.93;8.00;;;;;;;25.44;49.18;101157.31;5033551;28;20033;-67
2023/07/11 08:30:17;;;;;;;15.68;8.48;;;;;;;25.58;48.55;101150.84;5042961;28;20061;-69
2023/07/11 08:32:43;;;;;;;15.27;8.07;;;;;;;25.63;47.99;101156.13;5049970;28;20514;-65
2023/07/11 08:35:08;;;;;;;14.93;8.00;;;;;;;25.65;47.73;101154.53;5053411;28;20037;-68
2023/07/11 08:37:34;;;;;;;16.05;8.32;;;;;;;25.64;47.32;101150.06;5051985;28;20037;-68
2023/07/11 08:40:00;;;;;;;15.50;8.80;;;;;;;25.70;47.80;101154.09;5053315;28;20382;-68
2023/07/11 08:42:35;;;;;;;14.85;8.30;;;;;;;25.79;48.22;101148.03;5051898;28;20064;-67
2023/07/11 08:45:17;;;;;;;15.23;8.10;;;;;;;25.81;47.41;101139.13;5053161;28;20063;-68
2023/07/11 08:48:08;;;;;;;16.27;8.20;;;;;;;25.91;47.60;101146.81;5045013;28;20029;-67
2023/07/11 08:50:45;;;;;;;15.32;8.35;;;;;;;25.97;47.13;101150.88;5050665;28;20578;-68
2023/07/11 08:53:13;;;;;;;20.10;8.57;;;;;;;25.96;47.56;101137.09;5044006;28;20055;-67
2023/07/11 08:55:48;;;;;;;17.35;8.52;;;;;;;26.05;46.76;101134.66;5052633;28;20782;-68
2023/07/11 08:58:21;;;;;;;17.02;8.27;;;;;;;26.03;46.18;101130.63;5053776;28;20107;-68
2023/07/11 09:00:50;;;;;;;17.98;8.60;;;;;;;26.16;46.44;101135.50;5052918;28;20036;-67
2023/07/11 09:03:25;;;;;;;15.93;8.05;;;;;;;26.25;46.37;101134.25;5053494;28;20033;-68
2023/07/11 09:06:10;;;;;;;17.52;8.95;;;;;;;26.32;47.08;101131.41;5053544;28;20020;-68
2023/07/11 09:08:41;;;;;;;16.25;8.70;;;;;;;26.37;46.81;101116.81;5052917;28;20531;-70
2023/07/11 09:11:18;;;;;;;14.95;8.65;;;;;;;26.41;46.81;101131.78;5053099;28;20067;-67
2023/07/11 09:14:37;;;;;;;16.85;8.52;;;;;;;26.42;46.82;101143.97;5052066;28;20626;-68
2023/07/11 09:17:14;;;;;;;14.80;7.88;;;;;;;26.53;45.85;101124.88;5009626;28;20029;-68
2023/07/11 09:19:51;;;;;;;15.55;8.00;;;;;;;26.60;45.71;101121.19;5009845;28;20038;-69
2023/07/11 09:22:22;;;;;;;14.57;8.20;;;;;;;26.79;45.17;101128.44;5024182;28;20041;-68
2023/07/11 09:24:57;;;;;;;14.35;8.13;;;;;;;27.09;45.05;101127.88;5030203;28;20121;-69
2023/07/11 09:27:27;;;;;;;15.73;8.30;;;;;;;27.38;45.27;101118.38;5030271;28;20045;-69
2023/07/11 09:29:53;;;;;;;16.13;8.57;;;;;;;27.48;43.34;101113.88;5037097;28;20033;-69
2023/07/11 09:32:20;;;;;;;18.08;9.00;;;;;;;27.59;42.80;101116.63;5050366;28;20029;-69
2023/07/11 09:34:48;;;;;;;16.92;8.45;;;;;;;27.71;41.92;101107.59;5051176;28;20021;-70
2023/07/11 09:37:33;;;;;;;14.88;8.40;;;;;;;27.80;42.26;101104.28;5052292;28;20032;-69
2023/07/11 09:40:10;;;;;;;15.70;8.13;;;;;;;27.93;41.48;101111.06;5052196;28;20033;-67
2023/07/11 09:42:44;;;;;;;14.52;8.63;;;;;;;27.90;41.38;101108.25;5052186;28;20054;-67
2023/07/11 09:45:17;;;;;;;15.95;8.52;;;;;;;28.01;40.98;101104.06;5052194;28;20355;-67
2023/07/11 09:47:47;;;;;;;;;;;;;;;28.29;40.90;101127.78;5052408;28;20024;-68
2023/07/11 09:50:23;;;;;;;18.23;9.35;;;;;;;28.29;40.36;101107.88;5046960;28;19963;-68
2023/07/11 09:52:51;;;;;;;17.15;8.50;;;;;;;28.59;41.38;101099.81;5041080;28;20095;-67
2023/07/11 09:55:24;;;;;;;16.42;8.52;;;;;;;28.63;40.21;101097.72;5050378;28;20029;-69
2023/07/11 09:57:50;;;;;;;18.30;9.38;;;;;;;28.73;39.87;101098.84;5051843;28;20040;-69
2023/07/11 10:00:16;;;;;;;17.83;8.90;;;;;;;28.67;40.01;101097.69;5051744;28;20028;-71
2023/07/11 10:02:46;;;;;;;17.27;8.90;;;;;;;28.50;41.16;101091.78;5051027;28;20047;-69
2023/07/11 10:05:23;;;;;;;17.52;8.82;;;;;;;28.31;41.74;101101.78;5048915;28;20036;-70
2023/07/11 10:08:00;;;;;;;13.75;8.57;;;;;;;28.15;42.24;101094.59;5032229;28;20040;-69
2023/07/11 10:10:25;;;;;;;14.85;8.90;;;;;;;28.09;41.99;101095.50;5043343;28;20348;-71
2023/07/11 10:12:50;;;;;;;13.07;8.50;;;;;;;28.18;41.84;101087.28;5051899;28;20104;-71
2023/07/11 10:15:18;;;;;;;15.77;8.70;;;;;;;28.35;41.13;101085.44;5046179;28;20041;-70
2023/07/11 10:17:44;;;;;;;15.93;8.80;;;;;;;28.47;41.15;101078.41;5031876;28;20025;-70
2023/07/11 10:20:17;;;;;;;17.23;9.18;;;;;;;28.70;41.32;101077.72;5031723;28;20053;-70
2023/07/11 10:22:47;;;;;;;17.20;8.98;;;;;;;28.81;40.28;101069.06;5048616;28;20068;-73
2023/07/11 10:25:18;;;;;;;17.55;9.02;;;;;;;29.05;40.46;101071.94;5051488;28;20053;-71
2023/07/11 10:27:59;;;;;;;17.48;8.85;;;;;;;28.93;38.79;101081.91;5039144;28;20034;-72
2023/07/11 10:30:28;;;;;;;14.60;8.48;;;;;;;28.89;39.82;101072.63;5031539;28;20875;-72
2023/07/11 10:33:02;;;;;;;15.95;8.82;;;;;;;29.02;40.25;101081.38;5031343;28;20032;-72
2023/07/11 10:35:29;;;;;;;17.35;9.00;;;;;;;29.31;40.60;101070.34;5031208;28;20033;-71
2023/07/11 10:38:05;;;;;;;16.70;9.00;;;;;;;29.19;39.47;101074.59;5029722;28;20783;-71
2023/07/11 10:40:36;;;;;;;15.98;8.82;;;;;;;28.79;39.54;101075.19;5030933;28;20108;-71
2023/07/11 10:43:05;;;;;;;17.98;9.02;;;;;;;28.54;40.28;101066.13;5028785;28;20033;-71
2023/07/11 10:45:36;;;;;;;19.25;9.00;;;;;;;28.37;40.00;101060.22;5045334;28;20028;-70
2023/07/11 10:48:08;;;;;;;15.63;8.98;;;;;;;28.46;41.13;101054.03;5044062;28;20033;-72
2023/07/11 10:50:45;;;;;;;16.83;9.00;;;;;;;28.66;41.57;101057.03;5037868;28;20083;-72
2023/07/11 10:53:20;;;;;;;17.38;9.02;;;;;;;28.97;40.97;101059.88;5044801;28;20045;-71
2023/07/11 10:56:13;;;;;;;16.58;8.65;;;;;;;29.11;40.64;101051.09;5033928;28;20048;-71
2023/07/11 10:58:39;;;;;;;15.57;8.50;;;;;;;29.10;40.73;101058.03;5033483;28;20047;-71
2023/07/11 11:01:35;;;;;;;16.33;8.63;;;;;;;29.22;39.96;101050.13;5044034;28;20037;-70
2023/07/11 11:04:25;;;;;;;16.92;9.00;;;;;;;29.16;39.91;101049.81;5031108;28;20025;-70
2023/07/11 11:06:58;;;;;;;16.70;8.23;;;;;;;29.08;38.82;101046.28;5043390;28;20029;-68
2023/07/11 11:09:35;;;;;;;17.25;8.57;;;;;;;29.10;39.21;101043.78;5050805;28;20021;-69
2023/07/11 11:12:15;;;;;;;19.65;8.75;;;;;;;29.04;38.53;101045.53;5050007;28;20136;-69
2023/07/11 11:14:40;;;;;;;17.23;8.95;;;;;;;29.19;38.95;101051.81;5050495;28;20037;-69